createdAt,value
2023-01-12T00:04:55.321Z,7.25
2023-01-12T00:09:56.924Z,8.32
2023-01-12T00:14:58.513Z,2.83
2023-01-12T00:20:00.147Z,8.15
2023-01-12T00:25:01.792Z,12.98
2023-01-12T00:30:03.477Z,8.75
2023-01-12T00:35:05.494Z,6.15
2023-01-12T00:40:09.855Z,8.27
2023-01-12T00:45:23.535Z,7.75
2023-01-12T00:50:25.203Z,5.45
2023-01-12T00:55:26.862Z,9.77
2023-01-12T01:00:28.436Z,5.50
2023-01-12T01:05:30.564Z,14.18
2023-01-12T01:10:32.156Z,12.07
2023-01-12T01:15:33.794Z,3.42
2023-01-12T01:20:36.709Z,8.88
2023-01-12T01:25:38.338Z,8.82
2023-01-12T01:30:39.971Z,4.65
2023-01-12T01:35:41.579Z,8.10
2023-01-12T01:40:43.655Z,8.60
2023-01-12T01:45:56.125Z,8.43
2023-01-12T01:51:04.541Z,10.52
2023-01-12T01:56:11.515Z,11.02
2023-01-12T02:01:13.156Z,6.15
2023-01-12T02:06:15.557Z,6.43
2023-01-12T02:11:36.266Z,4.63
2023-01-12T02:16:46.545Z,5.97
2023-01-12T02:21:54.118Z,3.25
2023-01-12T02:27:23.068Z,9.25
2023-01-12T02:32:40.116Z,9.05
2023-01-12T02:38:17.088Z,8.02
2023-01-12T02:43:27.803Z,9.23
2023-01-12T02:48:54.851Z,6.35
2023-01-12T02:54:02.862Z,5.18
2023-01-12T02:59:09.382Z,4.53
2023-01-12T03:04:11.691Z,8.82
2023-01-12T03:09:15.947Z,6.13
2023-01-12T03:14:18.113Z,10.38
2023-01-12T03:19:29.753Z,7.47
2023-01-12T03:24:40.219Z,4.53
2023-01-12T03:29:47.178Z,7.95
2023-01-12T03:34:49.248Z,6.65
2023-01-12T03:39:59.323Z,5.40
2023-01-12T03:45:36.484Z,8.60
2023-01-12T03:50:52.975Z,5.47
2023-01-12T03:55:59.561Z,7.10
2023-01-12T04:01:02.356Z,5.85
2023-01-12T04:06:04.304Z,9.52
2023-01-12T04:11:26.127Z,4.60
2023-01-12T04:16:27.844Z,4.30
2023-01-12T04:21:48.101Z,15.48
2023-01-12T04:26:49.713Z,6.32
2023-01-12T04:31:51.421Z,7.60
2023-01-12T04:36:53.147Z,4.40
2023-01-12T04:41:55.007Z,5.82
2023-01-12T04:46:56.698Z,7.82
2023-01-12T04:51:58.316Z,8.55
2023-01-12T04:56:59.922Z,7.43
2023-01-12T05:02:01.561Z,10.82
2023-01-12T05:07:03.405Z,7.75
2023-01-12T05:12:05.404Z,6.05
2023-01-12T05:17:07.037Z,10.25
2023-01-12T05:22:08.914Z,9.23
2023-01-12T05:27:10.563Z,6.88
2023-01-12T05:32:12.166Z,6.20
2023-01-12T05:37:13.817Z,6.20
2023-01-12T05:42:34.125Z,9.18
2023-01-12T05:47:35.731Z,9.50
2023-01-12T05:52:37.369Z,8.60
2023-01-12T05:57:38.967Z,5.93
2023-01-12T06:02:40.590Z,7.50
2023-01-12T06:07:42.976Z,5.60
2023-01-12T06:13:03.185Z,8.25
2023-01-12T06:18:04.958Z,14.23
2023-01-12T06:23:06.560Z,12.82
2023-01-12T06:28:08.182Z,11.25
2023-01-12T06:33:09.818Z,8.43
2023-01-12T06:38:11.414Z,5.93
2023-01-12T06:43:13.034Z,9.75
2023-01-12T06:48:14.654Z,4.43
2023-01-12T06:53:16.282Z,5.53
2023-01-12T06:58:18.205Z,8.07
2023-01-12T07:03:20.336Z,6.80
2023-01-12T07:08:21.973Z,8.27
2023-01-12T07:13:23.589Z,11.98
2023-01-12T07:18:25.232Z,8.13
2023-01-12T07:23:26.889Z,9.98
2023-01-12T07:28:28.595Z,6.63
2023-01-12T07:33:30.984Z,8.00
2023-01-12T07:38:32.679Z,6.15
2023-01-12T07:43:34.298Z,4.68
2023-01-12T07:48:35.953Z,4.43
2023-01-12T07:53:37.574Z,7.35
2023-01-12T07:58:39.197Z,4.13
2023-01-12T08:03:40.965Z,7.28
2023-01-12T08:08:42.893Z,8.88
2023-01-12T08:13:44.561Z,6.35
2023-01-12T08:18:58.102Z,5.18
2023-01-12T08:24:02.085Z,7.30
2023-01-12T08:29:12.828Z,4.95
2023-01-12T08:34:14.843Z,8.48
2023-01-12T08:39:16.476Z,7.18
2023-01-12T08:44:19.065Z,9.05
2023-01-12T08:49:24.393Z,6.03
2023-01-12T08:54:26.340Z,4.57
2023-01-12T08:59:27.945Z,7.05
2023-01-12T09:04:29.640Z,5.70
2023-01-12T09:09:31.237Z,4.07
2023-01-12T09:14:38.488Z,5.68
2023-01-12T09:19:40.247Z,7.97
2023-01-12T09:24:41.931Z,6.68
2023-01-12T09:29:43.634Z,7.20
2023-01-12T09:34:48.446Z,5.93
2023-01-12T09:39:50.088Z,5.55
2023-01-12T09:45:11.554Z,8.45
2023-01-12T09:50:34.304Z,4.35
2023-01-12T09:55:47.761Z,4.88
2023-01-12T10:00:55.207Z,6.63
2023-01-12T10:06:00.957Z,6.90
2023-01-12T10:11:12.253Z,6.13
2023-01-12T10:16:25.589Z,2.50
2023-01-12T10:21:29.769Z,7.07
2023-01-12T10:26:39.859Z,5.65
2023-01-12T10:31:41.559Z,4.68
2023-01-12T10:36:45.856Z,4.28
2023-01-12T10:42:07.491Z,4.60
2023-01-12T10:47:10.738Z,5.35
2023-01-12T10:52:37.943Z,14.13
2023-01-12T10:57:44.699Z,4.93
2023-01-12T11:02:46.531Z,5.60
2023-01-12T11:07:49.769Z,2.70
2023-01-12T11:13:24.472Z,4.43
2023-01-12T11:18:39.093Z,4.18
2023-01-12T11:23:55.015Z,6.18
2023-01-12T11:29:02.801Z,4.45
2023-01-12T11:34:17.087Z,4.85
2023-01-12T11:39:23.407Z,7.28
2023-01-12T11:44:31.125Z,4.25
2023-01-12T11:49:44.616Z,3.92
2023-01-12T11:54:46.289Z,3.15
2023-01-12T11:59:47.926Z,4.10
2023-01-12T12:05:07.089Z,3.25
2023-01-12T12:10:23.881Z,2.63
2023-01-12T12:15:41.852Z,3.40
2023-01-12T12:20:58.490Z,3.20
2023-01-12T12:26:08.431Z,6.53
2023-01-12T12:31:29.367Z,3.33
2023-01-12T12:37:08.415Z,2.60
2023-01-12T12:42:39.407Z,1.95
2023-01-12T12:48:06.187Z,3.17
2023-01-12T12:53:26.206Z,1.55
2023-01-12T12:58:44.585Z,3.65
2023-01-12T13:03:53.799Z,1.90
2023-01-12T13:09:00.713Z,5.60
2023-01-12T13:14:16.592Z,2.83
2023-01-12T13:19:43.614Z,1.98
2023-01-12T13:24:46.070Z,2.30
2023-01-12T13:29:47.998Z,1.10
2023-01-12T13:34:52.003Z,1.00
2023-01-12T13:40:18.399Z,3.20
2023-01-12T13:45:22.265Z,0.95
2023-01-12T13:50:26.202Z,1.42
2023-01-12T13:55:31.186Z,1.42
2023-01-12T14:00:33.808Z,2.35
2023-01-12T14:05:55.424Z,1.42
2023-01-12T14:11:31.174Z,1.60
2023-01-12T14:17:04.846Z,2.08
2023-01-12T14:22:18.547Z,1.23
2023-01-12T14:27:23.255Z,1.58
2023-01-12T14:32:25.624Z,2.72
2023-01-12T14:37:32.796Z,2.65
2023-01-12T14:42:52.823Z,1.38
2023-01-12T14:47:54.422Z,1.05
2023-01-12T14:52:56.029Z,2.30
2023-01-12T14:58:00.765Z,1.02
2023-01-12T15:03:13.657Z,3.15
2023-01-12T15:08:31.146Z,2.33
2023-01-12T15:13:37.883Z,1.15
2023-01-12T15:18:58.059Z,1.95
2023-01-12T15:24:18.403Z,1.50
2023-01-12T15:29:20.007Z,0.70
2023-01-12T15:34:21.672Z,0.88
2023-01-12T15:39:23.344Z,1.73
2023-01-12T15:44:25.103Z,1.60
2023-01-12T15:49:27.002Z,1.85
2023-01-12T15:54:28.684Z,1.30
2023-01-12T15:59:31.988Z,0.85
2023-01-12T16:04:42.827Z,1.38
2023-01-12T16:09:49.903Z,1.33
2023-01-12T16:14:52.028Z,1.30
2023-01-12T16:19:53.849Z,1.20
2023-01-12T16:24:56.948Z,1.17
2023-01-12T16:29:58.599Z,1.67
2023-01-12T16:35:00.265Z,2.08
2023-01-12T16:40:01.943Z,2.40
2023-01-12T16:45:03.858Z,1.15
2023-01-12T16:50:05.969Z,1.10
2023-01-12T16:55:07.867Z,1.45
2023-01-12T17:00:10.905Z,2.53
2023-01-12T17:05:12.902Z,1.25
2023-01-12T17:10:17.776Z,2.33
2023-01-12T17:15:19.484Z,2.17
2023-01-12T17:20:21.493Z,1.38
2023-01-12T17:25:23.295Z,0.88
2023-01-12T17:30:24.906Z,3.88
2023-01-12T17:35:26.766Z,0.90
2023-01-12T17:40:29.002Z,1.30
2023-01-12T17:45:30.675Z,2.65
2023-01-12T17:50:32.330Z,1.95
2023-01-12T17:55:36.901Z,1.80
2023-01-12T18:00:41.555Z,1.77
2023-01-12T18:05:47.052Z,1.77
2023-01-12T18:10:48.791Z,0.93
2023-01-12T18:15:50.466Z,2.63
2023-01-12T18:20:53.422Z,2.38
2023-01-12T18:25:55.060Z,2.13
2023-01-12T18:31:08.080Z,2.17
2023-01-12T18:36:16.091Z,1.20
2023-01-12T18:41:37.520Z,1.35
2023-01-12T18:47:00.208Z,3.53
2023-01-12T18:52:21.642Z,1.15
2023-01-12T18:57:26.706Z,1.10
2023-01-12T19:02:29.962Z,2.35
2023-01-12T19:07:34.843Z,1.45
2023-01-12T19:12:36.511Z,1.23
2023-01-12T19:17:41.792Z,1.10
2023-01-12T19:23:02.719Z,2.90
2023-01-12T19:28:23.384Z,1.45
2023-01-12T19:33:25.031Z,0.85
2023-01-12T19:38:26.643Z,1.65
2023-01-12T19:43:30.078Z,1.10
2023-01-12T19:48:32.668Z,0.70
2023-01-12T19:53:34.324Z,0.82
2023-01-12T19:58:36.288Z,0.75
2023-01-12T20:03:40.105Z,0.63
2023-01-12T20:08:42.139Z,0.80
2023-01-12T20:13:43.891Z,0.70
2023-01-12T20:18:45.572Z,0.90
2023-01-12T20:23:47.179Z,0.68
2023-01-12T20:28:48.794Z,1.10
2023-01-12T20:33:50.403Z,0.80
2023-01-12T20:38:52.233Z,0.98
2023-01-12T20:43:53.862Z,0.60
2023-01-12T20:48:55.506Z,0.60
2023-01-12T20:53:58.831Z,0.75
2023-01-12T20:59:01.710Z,1.55
2023-01-12T21:04:03.463Z,0.70
2023-01-12T21:09:05.465Z,0.55
2023-01-12T21:14:07.083Z,0.75
2023-01-12T21:19:08.905Z,0.57
2023-01-12T21:24:10.728Z,0.80
2023-01-12T21:29:12.372Z,1.48
2023-01-12T21:34:14.015Z,0.95
2023-01-12T21:39:15.997Z,0.90
2023-01-12T21:44:17.613Z,0.85
2023-01-12T21:49:19.221Z,0.60
2023-01-12T21:54:20.924Z,1.88
2023-01-12T21:59:22.527Z,0.80
2023-01-12T22:04:24.188Z,0.75
2023-01-12T22:09:26.103Z,0.90
2023-01-12T22:14:27.707Z,0.93
2023-01-12T22:19:29.323Z,1.38
2023-01-12T22:24:30.977Z,0.50
2023-01-12T22:29:32.722Z,1.55
2023-01-12T22:34:34.371Z,1.10
2023-01-12T22:39:35.988Z,0.80
2023-01-12T22:44:37.633Z,2.33
2023-01-12T22:49:39.656Z,0.82
2023-01-12T22:54:41.308Z,0.63
2023-01-12T22:59:42.935Z,0.60
2023-01-12T23:04:44.652Z,0.73
2023-01-12T23:09:46.797Z,0.60
2023-01-12T23:14:48.527Z,0.60
2023-01-12T23:19:50.362Z,1.67
2023-01-12T23:24:52.109Z,0.98
2023-01-12T23:29:53.829Z,2.13
2023-01-12T23:34:55.538Z,1.23
2023-01-12T23:39:57.259Z,1.65
2023-01-12T23:44:59.031Z,1.00
2023-01-12T23:50:00.854Z,0.60
2023-01-12T23:55:02.602Z,2.65
